Flugplatz Hahn (EDFH)

Hier findest Du alle Informationen zum Flugplatz Hahn (EDFH).

Informationen für Piloten zum Flugplatz Hahn

Hier findest Du alle relevanten Informationen, die Du als Pilot benötigst, um Hahn anzufliegen.

Flugplatz: Hahn ICAO-Code: EDFH
Frequenz Turm: 119,650 Mhz GAFOR Gebiet: 41
Frequenz Ground: 119,650 Mhz Mogas: nein
Platzrunde: - Landegebühr: -
Platzhöhe: - Sunrise: 03:29 Uhr UTC
Pisten: 03/21 - 2.745 m x , ASPH Sunset: 19:42 Uhr UTC

Mitglieder, die in Hahn fliegen

Flugwetter am Flugplatz Hahn

Die METAR Information stammen aus EDFH.

METAR Code:
2020/07/06 16:20
EDFH 061620Z 35006KT 310V020 9999 FEW025 SCT080TCU 13/08 Q1020

Temperatur: 18,7 °C Niederschlag: - Wind: 8,0 kt
Temperatur (min.): 18,0 °C Luftdruck: 1019 hPa Windrichtung: 300 °
Temperatur (max.): 19,0 °C Luftfeuchtigkeit: 42 % Bewölkung: 3/8

Flugschulen am Flugplatz Hahn

Am Flugplatz Hahn gibt es leider keine Flugschule.

Benachbarte Flugplätze und Flugschulen

Es gibt 19 weitere Flugplätze in einem Umkreis von 50 km um den Flugplatz Hahn.

Jetzt anmelden

Passwort vergessen

Umfrage Archiv

Wären Rettungsgeräte keine Pflicht mehr, würdet Ihr Euer UL trotzdem mit einem ausstatten?

Ja
82.1 %
Nein
17.9 %
Stimmen: 195 | Diskussion
Anzeige: Roland Aircraft
Statistik Alle Mitglieder

Aktuell sind 27 Besucher online, davon 3 Mitglieder und 24 Gäste.


Mitglieder online:
Chris_EDNC  monstertyp  Heli 

Anzeige: VFR Sprechfunk Simulator


Anzeige: Pocket FMS